sensor_id;sensor_type;location;lat;lon;timestamp;pressure;altitude;pressure_sealevel;temperature;humidity
62592;BME280;48659;41.622;2.276;2023-03-21T00:02:12;100219.04;;;12.15;56.25
62592;BME280;48659;41.622;2.276;2023-03-21T00:04:38;100219.61;;;12.26;56.47
62592;BME280;48659;41.622;2.276;2023-03-21T00:07:06;100218.44;;;11.00;58.14
62592;BME280;48659;41.622;2.276;2023-03-21T00:09:34;100216.76;;;11.46;58.38
62592;BME280;48659;41.622;2.276;2023-03-21T00:12:01;100215.20;;;11.74;56.65
62592;BME280;48659;41.622;2.276;2023-03-21T00:14:29;100215.25;;;10.06;60.72
62592;BME280;48659;41.622;2.276;2023-03-21T00:16:56;100213.39;;;10.19;61.84
62592;BME280;48659;41.622;2.276;2023-03-21T00:19:23;100208.78;;;10.13;63.21
62592;BME280;48659;41.622;2.276;2023-03-21T00:21:51;100202.46;;;10.70;61.51
62592;BME280;48659;41.622;2.276;2023-03-21T00:24:22;100206.19;;;9.20;61.17
62592;BME280;48659;41.622;2.276;2023-03-21T00:26:50;100199.73;;;10.36;61.83
62592;BME280;48659;41.622;2.276;2023-03-21T00:29:20;100195.04;;;10.37;58.79
62592;BME280;48659;41.622;2.276;2023-03-21T00:31:48;100196.30;;;11.93;55.77
62592;BME280;48659;41.622;2.276;2023-03-21T00:34:15;100194.86;;;11.63;55.06
62592;BME280;48659;41.622;2.276;2023-03-21T00:36:42;100192.61;;;10.63;57.28
62592;BME280;48659;41.622;2.276;2023-03-21T00:39:10;100192.60;;;11.69;56.37
62592;BME280;48659;41.622;2.276;2023-03-21T00:41:37;100191.05;;;9.98;59.54
62592;BME280;48659;41.622;2.276;2023-03-21T00:44:05;100185.40;;;10.96;57.36
62592;BME280;48659;41.622;2.276;2023-03-21T00:46:32;100189.02;;;11.98;55.32
62592;BME280;48659;41.622;2.276;2023-03-21T00:49:00;100189.14;;;11.31;57.31
62592;BME280;48659;41.622;2.276;2023-03-21T00:51:28;100188.36;;;11.07;55.53
62592;BME280;48659;41.622;2.276;2023-03-21T00:53:57;100183.97;;;11.92;54.52
62592;BME280;48659;41.622;2.276;2023-03-21T00:56:24;100180.90;;;11.84;54.36
62592;BME280;48659;41.622;2.276;2023-03-21T00:58:52;100174.16;;;11.91;54.21
62592;BME280;48659;41.622;2.276;2023-03-21T01:01:19;100172.81;;;11.32;54.34
62592;BME280;48659;41.622;2.276;2023-03-21T01:03:47;100170.23;;;12.14;53.39
62592;BME280;48659;41.622;2.276;2023-03-21T01:06:14;100172.63;;;11.68;54.25
62592;BME280;48659;41.622;2.276;2023-03-21T01:08:42;100173.01;;;11.12;54.23
62592;BME280;48659;41.622;2.276;2023-03-21T01:11:12;100169.58;;;11.98;53.81
62592;BME280;48659;41.622;2.276;2023-03-21T01:13:41;100169.77;;;11.77;54.14
62592;BME280;48659;41.622;2.276;2023-03-21T01:16:09;100170.40;;;11.45;54.19
62592;BME280;48659;41.622;2.276;2023-03-21T01:18:38;100175.44;;;11.25;54.85
62592;BME280;48659;41.622;2.276;2023-03-21T01:21:09;100177.60;;;11.73;54.17
62592;BME280;48659;41.622;2.276;2023-03-21T01:23:36;100169.78;;;11.63;54.18
62592;BME280;48659;41.622;2.276;2023-03-21T01:26:06;100165.17;;;11.85;54.37
62592;BME280;48659;41.622;2.276;2023-03-21T01:28:34;100161.87;;;11.64;54.47
62592;BME280;48659;41.622;2.276;2023-03-21T01:31:03;100154.46;;;12.25;53.23
62592;BME280;48659;41.622;2.276;2023-03-21T01:33:31;100154.15;;;12.12;52.90
62592;BME280;48659;41.622;2.276;2023-03-21T01:36:00;100154.68;;;12.59;52.70
62592;BME280;48659;41.622;2.276;2023-03-21T01:38:27;100149.49;;;12.14;52.93
62592;BME280;48659;41.622;2.276;2023-03-21T01:40:54;100148.83;;;12.07;53.65
62592;BME280;48659;41.622;2.276;2023-03-21T01:43:24;100153.68;;;11.88;53.77
62592;BME280;48659;41.622;2.276;2023-03-21T01:46:57;100152.65;;;12.57;52.94
62592;BME280;48659;41.622;2.276;2023-03-21T01:49:26;100141.59;;;12.33;52.99
62592;BME280;48659;41.622;2.276;2023-03-21T01:51:59;100144.89;;;12.20;54.28
62592;BME280;48659;41.622;2.276;2023-03-21T01:54:32;100145.19;;;11.77;55.22
62592;BME280;48659;41.622;2.276;2023-03-21T01:57:04;100142.08;;;11.40;55.79
62592;BME280;48659;41.622;2.276;2023-03-21T01:59:36;100140.13;;;11.40;55.60
62592;BME280;48659;41.622;2.276;2023-03-21T02:02:10;100141.32;;;11.69;55.18
62592;BME280;48659;41.622;2.276;2023-03-21T02:04:39;100136.76;;;11.14;55.06
62592;BME280;48659;41.622;2.276;2023-03-21T02:07:10;100132.41;;;11.72;54.16
62592;BME280;48659;41.622;2.276;2023-03-21T02:09:51;100126.15;;;11.73;53.97
62592;BME280;48659;41.622;2.276;2023-03-21T02:12:19;100124.02;;;10.93;54.53
62592;BME280;48659;41.622;2.276;2023-03-21T02:14:48;100122.05;;;11.63;53.93
62592;BME280;48659;41.622;2.276;2023-03-21T02:17:22;100122.51;;;11.07;54.32
62592;BME280;48659;41.622;2.276;2023-03-21T02:22:04;100114.45;;;11.11;55.78
62592;BME280;48659;41.622;2.276;2023-03-21T02:26:00;100110.06;;;10.39;56.93
62592;BME280;48659;41.622;2.276;2023-03-21T02:28:37;100112.13;;;10.54;57.07
62592;BME280;48659;41.622;2.276;2023-03-21T02:31:29;100109.31;;;10.48;57.37
62592;BME280;48659;41.622;2.276;2023-03-21T02:34:34;100105.38;;;10.58;57.28
62592;BME280;48659;41.622;2.276;2023-03-21T02:37:14;100104.31;;;10.37;57.17
62592;BME280;48659;41.622;2.276;2023-03-21T02:39:53;100096.51;;;10.21;56.97
62592;BME280;48659;41.622;2.276;2023-03-21T02:42:28;100092.53;;;9.94;56.95
62592;BME280;48659;41.622;2.276;2023-03-21T02:45:03;100090.27;;;10.31;57.20
62592;BME280;48659;41.622;2.276;2023-03-21T02:47:38;100085.22;;;8.99;57.40
62592;BME280;48659;41.622;2.276;2023-03-21T02:50:27;100080.12;;;10.22;57.22
62592;BME280;48659;41.622;2.276;2023-03-21T02:52:58;100078.58;;;9.68;58.40
62592;BME280;48659;41.622;2.276;2023-03-21T02:55:30;100081.12;;;9.55;58.65
62592;BME280;48659;41.622;2.276;2023-03-21T02:58:00;100074.96;;;10.77;56.92
62592;BME280;48659;41.622;2.276;2023-03-21T03:00:30;100069.60;;;10.47;55.46
62592;BME280;48659;41.622;2.276;2023-03-21T03:02:58;100067.06;;;9.98;56.93
62592;BME280;48659;41.622;2.276;2023-03-21T03:05:28;100057.84;;;9.74;57.46
62592;BME280;48659;41.622;2.276;2023-03-21T03:08:05;100063.52;;;9.14;58.92
62592;BME280;48659;41.622;2.276;2023-03-21T03:10:45;100064.01;;;9.67;58.24
62592;BME280;48659;41.622;2.276;2023-03-21T03:13:30;100056.52;;;10.02;56.41
62592;BME280;48659;41.622;2.276;2023-03-21T03:16:07;100052.42;;;9.75;57.69
62592;BME280;48659;41.622;2.276;2023-03-21T03:18:45;100046.29;;;10.13;56.41
62592;BME280;48659;41.622;2.276;2023-03-21T03:21:19;100042.04;;;9.85;56.12
62592;BME280;48659;41.622;2.276;2023-03-21T03:23:51;100036.08;;;10.58;55.59
62592;BME280;48659;41.622;2.276;2023-03-21T03:26:25;100033.11;;;9.93;55.85
62592;BME280;48659;41.622;2.276;2023-03-21T03:28:58;100029.54;;;10.35;55.34
62592;BME280;48659;41.622;2.276;2023-03-21T03:31:31;100025.51;;;9.66;55.89
62592;BME280;48659;41.622;2.276;2023-03-21T03:34:04;100021.95;;;9.86;55.82
62592;BME280;48659;41.622;2.276;2023-03-21T03:36:36;100017.83;;;9.99;54.92
62592;BME280;48659;41.622;2.276;2023-03-21T03:39:07;100018.58;;;10.40;55.48
62592;BME280;48659;41.622;2.276;2023-03-21T03:41:42;100016.19;;;10.67;54.67
62592;BME280;48659;41.622;2.276;2023-03-21T03:44:24;100019.80;;;11.14;52.78
62592;BME280;48659;41.622;2.276;2023-03-21T03:46:57;100018.31;;;10.52;53.92
62592;BME280;48659;41.622;2.276;2023-03-21T03:49:30;100014.24;;;10.09;53.82
62592;BME280;48659;41.622;2.276;2023-03-21T03:52:02;100010.73;;;10.94;52.74
62592;BME280;48659;41.622;2.276;2023-03-21T03:54:34;100009.90;;;10.93;52.58
62592;BME280;48659;41.622;2.276;2023-03-21T03:57:04;100005.71;;;11.38;51.85
62592;BME280;48659;41.622;2.276;2023-03-21T03:59:33;100006.41;;;11.49;50.88
62592;BME280;48659;41.622;2.276;2023-03-21T04:02:00;100010.76;;;10.88;51.77
62592;BME280;48659;41.622;2.276;2023-03-21T04:04:27;100006.51;;;10.33;52.22
62592;BME280;48659;41.622;2.276;2023-03-21T04:06:54;100002.58;;;10.05;53.44
62592;BME280;48659;41.622;2.276;2023-03-21T04:09:21;100009.03;;;10.19;51.98
62592;BME280;48659;41.622;2.276;2023-03-21T04:11:50;100004.95;;;11.17;50.82
62592;BME280;48659;41.622;2.276;2023-03-21T04:14:18;100011.97;;;10.39;52.94
62592;BME280;48659;41.622;2.276;2023-03-21T04:16:45;100012.19;;;10.45;53.66
62592;BME280;48659;41.622;2.276;2023-03-21T04:19:18;100012.39;;;9.72;54.16
62592;BME280;48659;41.622;2.276;2023-03-21T04:21:46;100017.13;;;10.74;53.35
62592;BME280;48659;41.622;2.276;2023-03-21T04:24:14;100016.64;;;10.62;53.17
62592;BME280;48659;41.622;2.276;2023-03-21T04:26:41;100016.14;;;10.19;54.14
62592;BME280;48659;41.622;2.276;2023-03-21T04:29:09;100013.44;;;10.15;53.30
62592;BME280;48659;41.622;2.276;2023-03-21T04:31:36;100013.42;;;9.90;53.50
62592;BME280;48659;41.622;2.276;2023-03-21T04:34:04;100015.43;;;9.99;53.87
62592;BME280;48659;41.622;2.276;2023-03-21T04:36:31;100014.57;;;9.98;54.12
62592;BME280;48659;41.622;2.276;2023-03-21T04:38:59;100011.26;;;9.32;54.48
62592;BME280;48659;41.622;2.276;2023-03-21T04:41:27;100010.13;;;9.98;54.14
62592;BME280;48659;41.622;2.276;2023-03-21T04:43:55;100006.96;;;10.34;53.65
62592;BME280;48659;41.622;2.276;2023-03-21T04:46:22;100011.55;;;9.77;53.93
62592;BME280;48659;41.622;2.276;2023-03-21T04:48:50;100007.96;;;10.12;53.91
62592;BME280;48659;41.622;2.276;2023-03-21T04:51:18;100004.66;;;9.56;54.15
62592;BME280;48659;41.622;2.276;2023-03-21T04:53:45;100002.58;;;10.48;53.16
62592;BME280;48659;41.622;2.276;2023-03-21T04:56:21;100003.52;;;9.61;54.07
62592;BME280;48659;41.622;2.276;2023-03-21T04:58:48;100000.39;;;10.01;53.76
62592;BME280;48659;41.622;2.276;2023-03-21T05:01:16;100000.66;;;10.19;52.27
62592;BME280;48659;41.622;2.276;2023-03-21T05:03:43;99997.77;;;10.39;52.59
62592;BME280;48659;41.622;2.276;2023-03-21T05:06:20;99996.25;;;10.52;53.44
62592;BME280;48659;41.622;2.276;2023-03-21T05:08:47;99994.75;;;10.20;53.39
62592;BME280;48659;41.622;2.276;2023-03-21T05:11:15;99987.78;;;9.78;53.64
62592;BME280;48659;41.622;2.276;2023-03-21T05:13:43;99989.48;;;9.41;52.83
62592;BME280;48659;41.622;2.276;2023-03-21T05:16:10;99988.85;;;10.59;51.90
62592;BME280;48659;41.622;2.276;2023-03-21T05:18:37;99985.93;;;10.89;52.10
62592;BME280;48659;41.622;2.276;2023-03-21T05:21:06;99986.15;;;10.82;51.43
62592;BME280;48659;41.622;2.276;2023-03-21T05:23:33;99984.15;;;10.28;52.78
62592;BME280;48659;41.622;2.276;2023-03-21T05:26:01;99986.92;;;10.61;52.37
62592;BME280;48659;41.622;2.276;2023-03-21T05:28:29;99987.14;;;9.15;53.67
62592;BME280;48659;41.622;2.276;2023-03-21T05:30:56;99990.63;;;9.62;54.31
62592;BME280;48659;41.622;2.276;2023-03-21T05:33:25;99985.10;;;8.99;54.70
62592;BME280;48659;41.622;2.276;2023-03-21T05:35:52;99987.94;;;9.45;54.65
62592;BME280;48659;41.622;2.276;2023-03-21T05:38:19;99986.08;;;9.29;54.79
62592;BME280;48659;41.622;2.276;2023-03-21T05:40:48;99987.18;;;9.82;54.51
62592;BME280;48659;41.622;2.276;2023-03-21T05:43:16;99990.18;;;9.70;55.00
62592;BME280;48659;41.622;2.276;2023-03-21T05:45:43;99989.23;;;9.98;55.43
62592;BME280;48659;41.622;2.276;2023-03-21T05:48:10;99994.25;;;9.76;55.65
62592;BME280;48659;41.622;2.276;2023-03-21T05:50:38;99993.91;;;9.68;55.33
62592;BME280;48659;41.622;2.276;2023-03-21T05:53:06;99999.60;;;9.56;55.62
62592;BME280;48659;41.622;2.276;2023-03-21T05:55:34;99995.10;;;8.35;56.01
62592;BME280;48659;41.622;2.276;2023-03-21T05:58:01;100000.40;;;9.93;54.49
62592;BME280;48659;41.622;2.276;2023-03-21T06:00:29;100003.56;;;9.67;55.13
62592;BME280;48659;41.622;2.276;2023-03-21T06:02:56;100005.69;;;9.57;54.86
62592;BME280;48659;41.622;2.276;2023-03-21T06:05:24;100006.16;;;9.47;54.62
62592;BME280;48659;41.622;2.276;2023-03-21T06:07:51;100007.26;;;10.25;53.88
62592;BME280;48659;41.622;2.276;2023-03-21T06:10:19;100010.62;;;9.08;54.37
62592;BME280;48659;41.622;2.276;2023-03-21T06:12:46;100015.18;;;9.63;54.98
62592;BME280;48659;41.622;2.276;2023-03-21T06:15:13;100015.35;;;9.65;54.86
62592;BME280;48659;41.622;2.276;2023-03-21T06:17:41;100016.15;;;10.06;54.24
62592;BME280;48659;41.622;2.276;2023-03-21T06:20:10;100015.67;;;10.09;54.52
62592;BME280;48659;41.622;2.276;2023-03-21T06:22:37;100015.88;;;9.83;54.80
62592;BME280;48659;41.622;2.276;2023-03-21T06:25:06;100014.83;;;10.72;52.93
62592;BME280;48659;41.622;2.276;2023-03-21T06:27:34;100018.42;;;10.37;53.23
62592;BME280;48659;41.622;2.276;2023-03-21T06:30:03;100024.48;;;10.47;53.49
62592;BME280;48659;41.622;2.276;2023-03-21T06:32:30;100029.36;;;9.77;53.84
62592;BME280;48659;41.622;2.276;2023-03-21T06:34:58;100036.93;;;10.27;53.64
62592;BME280;48659;41.622;2.276;2023-03-21T06:37:25;100034.82;;;9.10;55.77
62592;BME280;48659;41.622;2.276;2023-03-21T06:39:52;100039.95;;;9.23;55.83
62592;BME280;48659;41.622;2.276;2023-03-21T06:42:19;100039.64;;;9.92;54.06
62592;BME280;48659;41.622;2.276;2023-03-21T06:44:47;100041.42;;;10.51;53.41
62592;BME280;48659;41.622;2.276;2023-03-21T06:47:15;100038.86;;;9.93;53.14
62592;BME280;48659;41.622;2.276;2023-03-21T06:49:42;100049.13;;;11.24;51.58
62592;BME280;48659;41.622;2.276;2023-03-21T06:52:09;100052.05;;;11.39;51.52
62592;BME280;48659;41.622;2.276;2023-03-21T06:54:37;100052.25;;;11.17;51.40
62592;BME280;48659;41.622;2.276;2023-03-21T06:57:05;100046.58;;;11.54;50.78
62592;BME280;48659;41.622;2.276;2023-03-21T06:59:32;100043.20;;;11.79;50.59
62592;BME280;48659;41.622;2.276;2023-03-21T07:01:59;100042.02;;;12.14;50.39
62592;BME280;48659;41.622;2.276;2023-03-21T07:04:27;100043.37;;;11.82;49.79
62592;BME280;48659;41.622;2.276;2023-03-21T07:06:54;100042.94;;;12.41;49.43
62592;BME280;48659;41.622;2.276;2023-03-21T07:09:22;100043.04;;;12.42;49.45
62592;BME280;48659;41.622;2.276;2023-03-21T07:11:49;100039.08;;;12.70;48.93
62592;BME280;48659;41.622;2.276;2023-03-21T07:14:17;100040.79;;;11.87;49.10
62592;BME280;48659;41.622;2.276;2023-03-21T07:16:45;100043.66;;;12.40;48.40
62592;BME280;48659;41.622;2.276;2023-03-21T07:19:13;100046.08;;;13.02;48.89
62592;BME280;48659;41.622;2.276;2023-03-21T07:21:42;100048.86;;;12.62;49.04
62592;BME280;48659;41.622;2.276;2023-03-21T07:24:09;100050.62;;;12.99;48.77
62592;BME280;48659;41.622;2.276;2023-03-21T07:26:37;100050.07;;;13.28;48.48
62592;BME280;48659;41.622;2.276;2023-03-21T07:29:04;100049.88;;;12.99;49.40
62592;BME280;48659;41.622;2.276;2023-03-21T07:31:33;100051.00;;;11.86;49.94
62592;BME280;48659;41.622;2.276;2023-03-21T07:34:01;100054.27;;;11.95;51.62
62592;BME280;48659;41.622;2.276;2023-03-21T07:36:28;100057.82;;;12.88;49.98
62592;BME280;48659;41.622;2.276;2023-03-21T07:38:55;100059.23;;;12.86;50.69
62592;BME280;48659;41.622;2.276;2023-03-21T07:41:23;100062.47;;;13.07;49.38
62592;BME280;48659;41.622;2.276;2023-03-21T07:43:50;100059.60;;;13.23;48.74
62592;BME280;48659;41.622;2.276;2023-03-21T07:46:17;100056.64;;;13.31;48.59
62592;BME280;48659;41.622;2.276;2023-03-21T07:48:45;100057.98;;;13.44;48.59
62592;BME280;48659;41.622;2.276;2023-03-21T07:51:13;100059.69;;;13.66;48.89
62592;BME280;48659;41.622;2.276;2023-03-21T07:53:40;100056.31;;;14.04;48.11
62592;BME280;48659;41.622;2.276;2023-03-21T07:56:08;100054.37;;;14.06;48.17
62592;BME280;48659;41.622;2.276;2023-03-21T07:58:36;100053.23;;;13.89;48.00
62592;BME280;48659;41.622;2.276;2023-03-21T08:01:03;100052.72;;;14.08;47.90
62592;BME280;48659;41.622;2.276;2023-03-21T08:03:31;100050.73;;;14.00;47.60
62592;BME280;48659;41.622;2.276;2023-03-21T08:05:59;100056.34;;;13.57;48.22
62592;BME280;48659;41.622;2.276;2023-03-21T08:08:26;100053.60;;;14.21;48.02
62592;BME280;48659;41.622;2.276;2023-03-21T08:10:53;100050.93;;;14.55;47.19
62592;BME280;48659;41.622;2.276;2023-03-21T08:13:21;100051.69;;;13.55;49.01
62592;BME280;48659;41.622;2.276;2023-03-21T08:15:48;100055.27;;;14.47;47.02
62592;BME280;48659;41.622;2.276;2023-03-21T08:18:16;100055.97;;;14.29;46.03
62592;BME280;48659;41.622;2.276;2023-03-21T08:20:44;100058.82;;;14.85;45.21
62592;BME280;48659;41.622;2.276;2023-03-21T08:23:11;100060.79;;;14.20;46.49
62592;BME280;48659;41.622;2.276;2023-03-21T08:25:39;100061.87;;;15.28;45.25
62592;BME280;48659;41.622;2.276;2023-03-21T08:28:07;100059.36;;;14.54;46.00
62592;BME280;48659;41.622;2.276;2023-03-21T08:30:34;100064.21;;;14.85;44.90
62592;BME280;48659;41.622;2.276;2023-03-21T08:33:04;100065.07;;;14.43;45.84
62592;BME280;48659;41.622;2.276;2023-03-21T08:35:32;100067.65;;;14.30;44.65
62592;BME280;48659;41.622;2.276;2023-03-21T08:38:01;100070.02;;;14.72;44.67
62592;BME280;48659;41.622;2.276;2023-03-21T08:40:29;100076.84;;;15.12;44.16
62592;BME280;48659;41.622;2.276;2023-03-21T08:42:56;100079.43;;;15.24;44.47
62592;BME280;48659;41.622;2.276;2023-03-21T08:45:24;100077.41;;;13.72;46.44
62592;BME280;48659;41.622;2.276;2023-03-21T08:47:52;100075.67;;;14.18;46.65
62592;BME280;48659;41.622;2.276;2023-03-21T08:50:23;100078.59;;;14.57;44.76
62592;BME280;48659;41.622;2.276;2023-03-21T08:52:50;100082.19;;;15.30;44.45
62592;BME280;48659;41.622;2.276;2023-03-21T08:55:21;100082.07;;;14.49;44.92
62592;BME280;48659;41.622;2.276;2023-03-21T08:57:48;100079.98;;;13.89;45.83
62592;BME280;48659;41.622;2.276;2023-03-21T09:00:21;100079.73;;;14.53;44.67
62592;BME280;48659;41.622;2.276;2023-03-21T09:02:49;100078.42;;;13.82;46.35
62592;BME280;48659;41.622;2.276;2023-03-21T09:05:22;100082.73;;;12.86;47.01
62592;BME280;48659;41.622;2.276;2023-03-21T09:07:49;100080.46;;;14.64;46.43
62592;BME280;48659;41.622;2.276;2023-03-21T09:10:23;100078.97;;;14.72;44.89
62592;BME280;48659;41.622;2.276;2023-03-21T09:12:52;100074.52;;;15.20;43.64
62592;BME280;48659;41.622;2.276;2023-03-21T09:15:21;100074.86;;;13.67;46.86
62592;BME280;48659;41.622;2.276;2023-03-21T09:17:50;100072.92;;;14.67;44.78
62592;BME280;48659;41.622;2.276;2023-03-21T09:20:24;100074.00;;;13.01;46.79
62592;BME280;48659;41.622;2.276;2023-03-21T09:22:52;100073.33;;;15.10;43.38
62592;BME280;48659;41.622;2.276;2023-03-21T09:25:19;100070.81;;;12.33;46.73
62592;BME280;48659;41.622;2.276;2023-03-21T09:27:47;100066.45;;;13.26;45.92
62592;BME280;48659;41.622;2.276;2023-03-21T09:30:21;100065.24;;;14.94;42.89
62592;BME280;48659;41.622;2.276;2023-03-21T09:32:49;100063.82;;;15.20;42.66
62592;BME280;48659;41.622;2.276;2023-03-21T09:35:17;100059.64;;;16.26;40.71
62592;BME280;48659;41.622;2.276;2023-03-21T09:37:46;100064.75;;;13.80;44.61
62592;BME280;48659;41.622;2.276;2023-03-21T09:40:17;100063.83;;;14.93;43.36
62592;BME280;48659;41.622;2.276;2023-03-21T09:42:54;100058.51;;;14.37;43.99
62592;BME280;48659;41.622;2.276;2023-03-21T09:45:31;100055.68;;;13.92;42.56
62592;BME280;48659;41.622;2.276;2023-03-21T09:48:00;100049.06;;;16.70;40.43
62592;BME280;48659;41.622;2.276;2023-03-21T09:50:30;100042.97;;;16.64;38.77
62592;BME280;48659;41.622;2.276;2023-03-21T09:53:00;100041.87;;;15.62;40.38
62592;BME280;48659;41.622;2.276;2023-03-21T09:55:30;100041.73;;;16.60;39.44
62592;BME280;48659;41.622;2.276;2023-03-21T09:58:03;100043.58;;;16.00;40.56
62592;BME280;48659;41.622;2.276;2023-03-21T10:00:36;100039.92;;;15.99;39.82
62592;BME280;48659;41.622;2.276;2023-03-21T10:03:05;100041.25;;;17.49;37.51
62592;BME280;48659;41.622;2.276;2023-03-21T10:05:39;100036.38;;;17.47;37.33
62592;BME280;48659;41.622;2.276;2023-03-21T10:08:11;100034.95;;;16.61;38.61
62592;BME280;48659;41.622;2.276;2023-03-21T10:10:45;100035.27;;;17.40;38.17
62592;BME280;48659;41.622;2.276;2023-03-21T10:13:18;100031.82;;;17.28;38.30
62592;BME280;48659;41.622;2.276;2023-03-21T10:15:47;100035.82;;;16.42;39.14
62592;BME280;48659;41.622;2.276;2023-03-21T10:18:20;100044.56;;;15.32;40.58
62592;BME280;48659;41.622;2.276;2023-03-21T10:20:49;100040.86;;;16.20;40.56
62592;BME280;48659;41.622;2.276;2023-03-21T10:23:26;100039.52;;;16.27;40.30
62592;BME280;48659;41.622;2.276;2023-03-21T10:25:58;100044.10;;;17.45;38.41
62592;BME280;48659;41.622;2.276;2023-03-21T10:28:29;100043.32;;;17.03;38.02
62592;BME280;48659;41.622;2.276;2023-03-21T10:31:00;100048.91;;;16.31;38.82
62592;BME280;48659;41.622;2.276;2023-03-21T10:33:34;100047.58;;;16.99;37.22
62592;BME280;48659;41.622;2.276;2023-03-21T10:36:05;100050.65;;;17.19;37.88
62592;BME280;48659;41.622;2.276;2023-03-21T10:38:34;100052.68;;;17.72;37.23
62592;BME280;48659;41.622;2.276;2023-03-21T10:41:03;100047.46;;;18.47;35.65
62592;BME280;48659;41.622;2.276;2023-03-21T10:43:35;100052.92;;;16.48;37.83
62592;BME280;48659;41.622;2.276;2023-03-21T10:46:07;100041.92;;;18.19;35.77
62592;BME280;48659;41.622;2.276;2023-03-21T10:48:37;100035.79;;;18.12;35.83
62592;BME280;48659;41.622;2.276;2023-03-21T10:51:07;100046.30;;;14.58;42.10
62592;BME280;48659;41.622;2.276;2023-03-21T10:53:38;100036.33;;;17.63;36.84
62592;BME280;48659;41.622;2.276;2023-03-21T10:56:08;100028.99;;;17.29;36.77
62592;BME280;48659;41.622;2.276;2023-03-21T10:58:41;100026.72;;;18.13;36.29
62592;BME280;48659;41.622;2.276;2023-03-21T11:01:23;100020.59;;;18.17;35.78
62592;BME280;48659;41.622;2.276;2023-03-21T11:03:56;100017.23;;;17.54;35.66
62592;BME280;48659;41.622;2.276;2023-03-21T11:06:27;100017.06;;;16.36;37.41
62592;BME280;48659;41.622;2.276;2023-03-21T11:09:00;100009.25;;;17.79;36.85
62592;BME280;48659;41.622;2.276;2023-03-21T11:11:36;100001.79;;;17.81;36.78
62592;BME280;48659;41.622;2.276;2023-03-21T11:14:06;100002.62;;;17.62;37.23
62592;BME280;48659;41.622;2.276;2023-03-21T11:16:38;100006.46;;;15.62;40.91
62592;BME280;48659;41.622;2.276;2023-03-21T11:19:14;100004.32;;;17.82;37.44
62592;BME280;48659;41.622;2.276;2023-03-21T11:21:42;100000.49;;;18.80;35.31
62592;BME280;48659;41.622;2.276;2023-03-21T11:24:22;99999.47;;;18.56;34.70
62592;BME280;48659;41.622;2.276;2023-03-21T11:26:50;100002.85;;;16.45;37.97
62592;BME280;48659;41.622;2.276;2023-03-21T11:29:28;100001.68;;;16.48;37.76
62592;BME280;48659;41.622;2.276;2023-03-21T11:31:57;99996.04;;;17.80;36.36
62592;BME280;48659;41.622;2.276;2023-03-21T11:34:31;99998.02;;;16.08;37.55
62592;BME280;48659;41.622;2.276;2023-03-21T11:37:01;99994.70;;;16.23;38.31
62592;BME280;48659;41.622;2.276;2023-03-21T11:39:34;99987.03;;;17.75;36.17
62592;BME280;48659;41.622;2.276;2023-03-21T11:42:03;99985.61;;;19.26;33.99
62592;BME280;48659;41.622;2.276;2023-03-21T11:44:33;99980.89;;;19.25;33.43
62592;BME280;48659;41.622;2.276;2023-03-21T11:47:01;99975.04;;;20.34;32.50
62592;BME280;48659;41.622;2.276;2023-03-21T11:49:29;99976.42;;;20.09;31.97
62592;BME280;48659;41.622;2.276;2023-03-21T11:52:05;99982.63;;;19.05;33.43
62592;BME280;48659;41.622;2.276;2023-03-21T11:54:47;99987.61;;;18.50;33.85
62592;BME280;48659;41.622;2.276;2023-03-21T11:57:23;99973.33;;;19.65;32.17
62592;BME280;48659;41.622;2.276;2023-03-21T12:00:02;99971.92;;;20.43;32.16
62592;BME280;48659;41.622;2.276;2023-03-21T12:02:52;99971.65;;;18.05;37.27
62592;BME280;48659;41.622;2.276;2023-03-21T12:05:25;99971.82;;;17.68;37.59
62592;BME280;48659;41.622;2.276;2023-03-21T12:08:00;99974.93;;;18.24;37.78
62592;BME280;48659;41.622;2.276;2023-03-21T12:10:38;99970.03;;;17.65;37.59
62592;BME280;48659;41.622;2.276;2023-03-21T12:13:25;99969.66;;;17.93;38.61
62592;BME280;48659;41.622;2.276;2023-03-21T12:16:03;99964.29;;;19.02;37.89
62592;BME280;48659;41.622;2.276;2023-03-21T12:18:48;99960.59;;;18.23;38.45
62592;BME280;48659;41.622;2.276;2023-03-21T12:21:24;99955.04;;;17.71;38.76
62592;BME280;48659;41.622;2.276;2023-03-21T12:24:03;99954.46;;;19.26;37.29
62592;BME280;48659;41.622;2.276;2023-03-21T12:26:38;99949.61;;;18.03;38.72
62592;BME280;48659;41.622;2.276;2023-03-21T12:29:20;99945.17;;;20.23;36.26
62592;BME280;48659;41.622;2.276;2023-03-21T12:32:03;99950.06;;;20.36;36.07
62592;BME280;48659;41.622;2.276;2023-03-21T12:34:50;99944.15;;;19.47;37.09
62592;BME280;48659;41.622;2.276;2023-03-21T12:37:30;99949.60;;;18.63;38.11
62592;BME280;48659;41.622;2.276;2023-03-21T12:40:07;99944.85;;;19.59;36.78
62592;BME280;48659;41.622;2.276;2023-03-21T12:42:55;99947.56;;;20.49;36.22
62592;BME280;48659;41.622;2.276;2023-03-21T12:45:27;99950.32;;;18.78;37.47
62592;BME280;48659;41.622;2.276;2023-03-21T12:48:01;99952.55;;;18.84;38.68
62592;BME280;48659;41.622;2.276;2023-03-21T12:50:32;99948.09;;;17.41;41.35
62592;BME280;48659;41.622;2.276;2023-03-21T12:53:06;99945.60;;;18.15;39.41
62592;BME280;48659;41.622;2.276;2023-03-21T12:55:35;99945.93;;;18.92;38.46
62592;BME280;48659;41.622;2.276;2023-03-21T12:58:04;99938.03;;;18.29;39.12
62592;BME280;48659;41.622;2.276;2023-03-21T13:00:34;99935.00;;;16.88;41.57
62592;BME280;48659;41.622;2.276;2023-03-21T13:03:09;99934.50;;;17.14;41.54
62592;BME280;48659;41.622;2.276;2023-03-21T13:05:43;99932.63;;;18.50;39.99
62592;BME280;48659;41.622;2.276;2023-03-21T13:08:14;99922.88;;;19.76;38.12
62592;BME280;48659;41.622;2.276;2023-03-21T13:10:44;99923.05;;;19.30;38.87
62592;BME280;48659;41.622;2.276;2023-03-21T13:13:18;99919.91;;;17.56;41.51
62592;BME280;48659;41.622;2.276;2023-03-21T13:15:55;99918.94;;;18.08;40.97